createdAt,value
2019-04-29T00:00:50.486Z,98537.45
2019-04-29T00:04:55.439Z,98537.55
2019-04-29T00:09:00.357Z,98536.28
2019-04-29T00:13:06.943Z,98540.11
2019-04-29T00:17:13.468Z,98543.59
2019-04-29T00:21:18.822Z,98545.33
2019-04-29T00:25:23.776Z,98539.22
2019-04-29T00:29:28.653Z,98534.44
2019-04-29T00:33:33.543Z,98543.91
2019-04-29T00:37:40.070Z,98538.00
2019-04-29T00:42:02.797Z,98542.45
2019-04-29T00:46:07.941Z,98535.16
2019-04-29T00:50:14.027Z,98549.80
2019-04-29T00:54:35.565Z,98546.31
2019-04-29T00:58:40.446Z,98538.98
2019-04-29T01:02:45.339Z,98548.51
2019-04-29T01:06:50.216Z,98548.08
2019-04-29T01:10:55.164Z,98548.54
2019-04-29T01:15:00.054Z,98548.58
2019-04-29T01:19:04.931Z,98545.98
2019-04-29T01:23:09.816Z,98548.55
2019-04-29T01:27:16.339Z,98549.86
2019-04-29T01:31:22.855Z,98548.16
2019-04-29T01:35:27.745Z,98545.09
2019-04-29T01:39:43.134Z,98543.31
2019-04-29T01:44:04.817Z,98548.10
2019-04-29T01:48:09.704Z,98546.48
2019-04-29T01:52:14.587Z,98558.56
2019-04-29T01:56:19.532Z,98555.53
2019-04-29T02:00:24.423Z,98553.80
2019-04-29T02:04:29.309Z,98548.62
2019-04-29T02:08:34.198Z,98557.66
2019-04-29T02:12:39.090Z,98559.33
2019-04-29T02:16:44.936Z,98560.20
2019-04-29T02:20:49.828Z,98560.70
2019-04-29T02:24:56.353Z,98568.94
2019-04-29T02:29:01.243Z,98565.06
2019-04-29T02:33:06.138Z,98562.91
2019-04-29T02:37:12.658Z,98565.08
2019-04-29T02:41:19.187Z,98559.86
2019-04-29T02:45:28.582Z,98559.41
2019-04-29T02:49:33.462Z,98559.36
2019-04-29T02:53:38.345Z,98559.80
2019-04-29T02:57:44.860Z,98557.24
2019-04-29T03:02:07.550Z,98566.33
2019-04-29T03:06:12.512Z,98564.19
2019-04-29T03:10:17.483Z,98563.75
2019-04-29T03:14:22.360Z,98558.58
2019-04-29T03:18:29.148Z,98562.03
2019-04-29T03:22:34.408Z,98562.46
2019-04-29T03:26:39.288Z,98557.29
2019-04-29T03:30:44.175Z,98560.80
2019-04-29T03:34:49.068Z,98559.09
2019-04-29T03:38:53.950Z,98558.23
2019-04-29T03:42:58.837Z,98557.80
2019-04-29T03:47:03.719Z,98559.54
2019-04-29T03:51:08.608Z,98555.66
2019-04-29T03:55:13.560Z,98551.77
2019-04-29T03:59:18.442Z,98562.12
2019-04-29T04:03:27.629Z,98562.56
2019-04-29T04:07:37.149Z,98561.26
2019-04-29T04:11:42.032Z,98563.84
2019-04-29T04:15:46.924Z,98572.06
2019-04-29T04:19:51.811Z,98572.06
2019-04-29T04:23:58.221Z,98573.34
2019-04-29T04:28:04.301Z,98577.63
2019-04-29T04:32:09.189Z,98583.66
2019-04-29T04:36:14.075Z,98589.72
2019-04-29T04:40:20.664Z,98587.97
2019-04-29T04:44:27.195Z,98595.73
2019-04-29T04:48:32.079Z,98599.16
2019-04-29T04:52:36.970Z,98599.13
2019-04-29T04:56:41.859Z,98599.52
2019-04-29T05:00:46.745Z,98593.83
2019-04-29T05:04:51.618Z,98595.38
2019-04-29T05:08:56.508Z,98600.80
2019-04-29T05:13:01.390Z,98601.94
2019-04-29T05:17:06.279Z,98611.27
2019-04-29T05:21:11.176Z,98617.20
2019-04-29T05:25:16.055Z,98622.15
2019-04-29T05:29:21.114Z,98627.38
2019-04-29T05:33:25.997Z,98617.41
2019-04-29T05:37:41.504Z,98607.95
2019-04-29T05:41:46.389Z,98611.91
2019-04-29T05:45:56.047Z,98612.73
2019-04-29T05:50:18.484Z,98614.05
2019-04-29T05:54:27.024Z,98613.88
2019-04-29T05:58:32.989Z,98618.40
2019-04-29T06:02:38.878Z,98621.78
2019-04-29T06:06:43.917Z,98624.61
2019-04-29T06:10:48.811Z,98616.77
2019-04-29T06:14:53.708Z,98622.52
2019-04-29T06:19:00.313Z,98620.41
2019-04-29T06:23:05.199Z,98625.77
2019-04-29T06:27:10.091Z,98627.83
2019-04-29T06:31:14.987Z,98626.10
2019-04-29T06:35:19.879Z,98629.40
2019-04-29T06:39:24.779Z,98622.08
2019-04-29T06:43:30.692Z,98637.41
2019-04-29T06:47:35.657Z,98639.48
2019-04-29T06:51:40.542Z,98640.33
2019-04-29T06:55:45.440Z,98644.79
2019-04-29T06:59:50.338Z,98645.03
2019-04-29T07:03:55.769Z,98646.66
2019-04-29T07:08:01.829Z,98649.77
2019-04-29T07:12:08.265Z,98650.14
2019-04-29T07:16:13.298Z,98643.78
2019-04-29T07:20:18.190Z,98622.05
2019-04-29T07:24:23.088Z,98631.23
2019-04-29T07:28:27.987Z,98639.13
2019-04-29T07:32:32.876Z,98637.14
2019-04-29T07:36:37.785Z,98634.40
2019-04-29T07:40:43.495Z,98634.05
2019-04-29T07:45:07.122Z,98645.07
2019-04-29T07:49:12.675Z,98639.74
2019-04-29T07:53:20.951Z,98638.38
2019-04-29T07:57:25.187Z,98627.66
2019-04-29T08:01:30.097Z,98626.64
2019-04-29T08:05:35.133Z,98626.39
2019-04-29T08:09:44.280Z,98620.53
2019-04-29T08:13:49.231Z,98618.77
2019-04-29T08:18:05.932Z,98622.31
2019-04-29T08:22:00.712Z,98613.20
2019-04-29T08:26:05.607Z,98626.27
2019-04-29T08:30:11.306Z,98620.25
2019-04-29T08:34:18.683Z,98614.90
2019-04-29T08:38:23.690Z,98607.31
2019-04-29T08:42:30.226Z,98615.98
2019-04-29T08:46:44.362Z,98600.36
2019-04-29T08:50:49.294Z,98606.25
2019-04-29T08:54:55.276Z,98619.46
2019-04-29T08:59:00.768Z,98616.89
2019-04-29T09:03:05.665Z,98609.93
2019-04-29T09:07:12.643Z,98613.73
2019-04-29T09:11:17.181Z,98614.70
2019-04-29T09:15:22.120Z,98599.65
2019-04-29T09:19:27.022Z,98597.81
2019-04-29T09:23:34.395Z,98601.09
2019-04-29T09:27:44.987Z,98599.31
2019-04-29T09:31:47.529Z,98599.34
2019-04-29T09:35:52.421Z,98599.28
2019-04-29T09:39:57.320Z,98572.22
2019-04-29T09:44:06.279Z,98572.22
2019-04-29T09:48:11.158Z,98585.41
2019-04-29T09:52:16.056Z,98588.09
2019-04-29T09:56:20.952Z,98583.33
2019-04-29T10:00:42.478Z,98551.59
2019-04-29T10:04:56.551Z,98571.50
2019-04-29T10:08:55.598Z,98577.86
2019-04-29T10:13:00.498Z,98575.17
2019-04-29T10:17:22.084Z,98571.20
2019-04-29T10:21:26.980Z,98566.64
2019-04-29T10:25:31.884Z,98567.89
2019-04-29T10:29:37.452Z,98567.57
2019-04-29T10:33:42.350Z,98561.02
2019-04-29T10:37:47.238Z,98553.03
2019-04-29T10:41:52.841Z,98559.53
2019-04-29T10:46:02.058Z,98562.00
2019-04-29T10:50:10.564Z,98558.20
2019-04-29T10:54:16.194Z,98544.62
2019-04-29T10:58:21.883Z,98545.55
2019-04-29T11:02:32.370Z,98545.30
2019-04-29T11:06:37.259Z,98540.61
2019-04-29T11:10:44.159Z,98534.67
2019-04-29T11:14:49.124Z,98525.88
2019-04-29T11:18:55.083Z,98513.12
2019-04-29T11:23:18.559Z,98515.58
2019-04-29T11:27:27.778Z,98504.27
2019-04-29T11:31:34.536Z,98483.04
2019-04-29T11:35:46.766Z,98475.33
2019-04-29T11:39:51.847Z,98469.97
2019-04-29T11:43:56.712Z,98462.34
2019-04-29T11:48:01.601Z,98456.02
2019-04-29T11:52:09.835Z,98460.09
2019-04-29T11:56:13.093Z,98453.22
2019-04-29T12:00:36.920Z,98449.95
2019-04-29T12:04:52.793Z,98447.27
2019-04-29T12:08:57.690Z,98443.30
2019-04-29T12:13:04.228Z,98439.84
2019-04-29T12:17:10.839Z,98435.02
2019-04-29T12:21:20.021Z,98439.08
2019-04-29T12:25:27.641Z,98438.74
2019-04-29T12:29:31.576Z,98426.24
2019-04-29T12:33:40.771Z,98419.28
2019-04-29T12:38:05.936Z,98424.42
2019-04-29T12:42:13.781Z,98414.84
2019-04-29T12:46:23.247Z,98413.22
2019-04-29T12:50:28.140Z,98404.88
2019-04-29T12:54:33.044Z,98398.27
2019-04-29T12:58:37.944Z,98396.60
2019-04-29T13:03:00.164Z,98397.19
2019-04-29T13:07:09.931Z,98389.95
2019-04-29T13:11:19.147Z,98380.22
2019-04-29T13:15:29.223Z,98371.86
2019-04-29T13:19:35.739Z,98369.35
2019-04-29T13:23:55.615Z,98367.89
2019-04-29T13:27:48.903Z,98361.08
2019-04-29T13:31:53.799Z,98357.13
2019-04-29T13:35:58.698Z,98354.69
2019-04-29T13:40:05.524Z,98366.08
2019-04-29T13:44:10.504Z,98359.33
2019-04-29T13:48:25.965Z,98356.90
2019-04-29T13:52:30.870Z,98359.00
2019-04-29T13:56:54.797Z,98349.13
2019-04-29T14:00:46.973Z,98330.04
2019-04-29T14:05:02.368Z,98346.44
2019-04-29T14:09:09.071Z,98341.16
2019-04-29T14:13:17.610Z,98343.16
2019-04-29T14:17:26.585Z,98337.38
2019-04-29T14:21:30.180Z,98336.00
2019-04-29T14:25:35.414Z,98340.33
2019-04-29T14:29:40.317Z,98330.84
2019-04-29T14:33:49.284Z,98326.52
2019-04-29T14:37:55.646Z,98332.35
2019-04-29T14:42:02.423Z,98332.25
2019-04-29T14:46:16.107Z,98329.09
2019-04-29T14:50:21.409Z,98330.94
2019-04-29T14:54:26.292Z,98336.77
2019-04-29T14:58:31.200Z,98336.53
2019-04-29T15:02:36.170Z,98336.67
2019-04-29T15:06:41.119Z,98322.58
2019-04-29T15:10:47.879Z,98322.58
2019-04-29T15:15:10.892Z,98335.26
2019-04-29T15:19:34.011Z,98338.42
2019-04-29T15:23:38.908Z,98352.91
2019-04-29T15:27:43.804Z,98358.30
2019-04-29T15:31:49.049Z,98360.67
2019-04-29T15:35:54.856Z,98370.57
2019-04-29T15:40:00.746Z,98375.97
2019-04-29T15:44:08.133Z,98380.84
2019-04-29T15:48:12.394Z,98377.91
2019-04-29T15:52:21.018Z,98380.16
2019-04-29T15:56:28.962Z,98383.91
2019-04-29T16:00:36.637Z,98377.75
2019-04-29T16:04:54.950Z,98377.75
2019-04-29T16:09:01.484Z,98380.81
2019-04-29T16:13:09.622Z,98380.75
2019-04-29T16:17:14.521Z,98377.91
2019-04-29T16:21:19.479Z,98370.81
2019-04-29T16:25:24.375Z,98362.94
2019-04-29T16:29:29.274Z,98357.58
2019-04-29T16:33:34.169Z,98355.78
2019-04-29T16:37:39.054Z,98361.76
2019-04-29T16:41:45.598Z,98360.07
2019-04-29T16:46:10.205Z,98348.89
2019-04-29T16:50:15.168Z,98352.17
2019-04-29T16:54:27.715Z,98351.14
2019-04-29T16:58:26.661Z,98347.85
2019-04-29T17:02:31.625Z,98354.41
2019-04-29T17:06:41.665Z,98358.98
2019-04-29T17:11:01.340Z,98360.03
2019-04-29T17:15:23.825Z,98351.17
2019-04-29T17:19:14.107Z,98334.39
2019-04-29T17:23:24.189Z,98321.55
2019-04-29T17:27:34.918Z,98334.37
2019-04-29T17:31:57.257Z,98336.27
2019-04-29T17:36:01.259Z,98327.08
2019-04-29T17:40:07.677Z,98325.28
2019-04-29T17:44:14.491Z,98335.78
2019-04-29T17:48:37.387Z,98332.84
2019-04-29T17:52:42.288Z,98342.39
2019-04-29T17:56:48.830Z,98340.35
2019-04-29T18:00:59.547Z,98335.56
2019-04-29T18:05:13.560Z,98333.16
2019-04-29T18:09:36.611Z,98338.73
2019-04-29T18:13:41.757Z,98341.94
2019-04-29T18:17:47.308Z,98350.77
2019-04-29T18:22:10.129Z,98348.31
2019-04-29T18:26:16.676Z,98362.87
2019-04-29T18:30:33.451Z,98356.84
2019-04-29T18:34:33.680Z,98346.17
2019-04-29T18:38:36.382Z,98336.84
2019-04-29T18:42:43.307Z,98343.56
2019-04-29T18:46:53.581Z,98345.05
2019-04-29T18:50:56.890Z,98357.34
2019-04-29T18:55:01.125Z,98357.39
2019-04-29T18:59:06.088Z,98362.34
2019-04-29T19:03:12.153Z,98360.42
2019-04-29T19:07:17.122Z,98364.76
2019-04-29T19:11:31.935Z,98367.38
2019-04-29T19:15:28.738Z,98370.09
2019-04-29T19:19:35.939Z,98366.69
2019-04-29T19:23:40.261Z,98373.00
2019-04-29T19:27:45.489Z,98372.55
2019-04-29T19:31:50.558Z,98386.63
2019-04-29T19:35:55.527Z,98376.23
2019-04-29T19:40:00.427Z,98378.24
2019-04-29T19:44:07.872Z,98395.84
2019-04-29T19:48:12.273Z,98401.98
2019-04-29T19:52:27.860Z,98401.58
2019-04-29T19:56:26.506Z,98399.41
2019-04-29T20:00:31.790Z,98402.19
2019-04-29T20:04:41.744Z,98395.23
2019-04-29T20:08:54.005Z,98381.14
2019-04-29T20:12:55.466Z,98389.45
2019-04-29T20:17:12.462Z,98402.27
2019-04-29T20:21:24.802Z,98416.60
2019-04-29T20:25:29.639Z,98414.72
2019-04-29T20:29:33.935Z,98404.20
2019-04-29T20:33:35.785Z,98406.91
2019-04-29T20:37:43.157Z,98406.20
2019-04-29T20:41:49.051Z,98410.63
2019-04-29T20:45:57.916Z,98420.29
2019-04-29T20:50:00.721Z,98418.98
2019-04-29T20:54:11.812Z,98412.35
2019-04-29T20:58:15.574Z,98411.95
2019-04-29T21:02:31.244Z,98405.55
2019-04-29T21:06:27.297Z,98410.46
2019-04-29T21:10:32.560Z,98410.50
2019-04-29T21:14:39.097Z,98396.50
2019-04-29T21:18:45.491Z,98409.15
2019-04-29T21:22:52.478Z,98408.13
2019-04-29T21:26:57.457Z,98407.52
2019-04-29T21:31:02.328Z,98411.62
2019-04-29T21:35:27.015Z,98426.85
2019-04-29T21:39:36.489Z,98424.11
2019-04-29T21:43:46.952Z,98425.95
2019-04-29T21:47:53.480Z,98419.60
2019-04-29T21:51:57.801Z,98427.98
2019-04-29T21:56:06.358Z,98423.66
2019-04-29T22:00:11.221Z,98422.38
2019-04-29T22:04:16.977Z,98418.74
2019-04-29T22:08:27.089Z,98415.96
2019-04-29T22:12:28.506Z,98427.67
2019-04-29T22:16:35.621Z,98425.58
2019-04-29T22:20:42.101Z,98420.01
2019-04-29T22:24:46.866Z,98425.54
2019-04-29T22:28:53.217Z,98417.55
2019-04-29T22:32:59.845Z,98428.86
2019-04-29T22:37:05.517Z,98424.40
2019-04-29T22:41:18.749Z,98424.81
2019-04-29T22:45:18.971Z,98426.73
2019-04-29T22:49:27.489Z,98422.92
2019-04-29T22:53:30.451Z,98421.20
2019-04-29T22:57:35.346Z,98431.84
2019-04-29T23:01:42.275Z,98432.38
2019-04-29T23:05:46.829Z,98429.30
2019-04-29T23:09:51.723Z,98425.45
2019-04-29T23:13:56.616Z,98421.84
2019-04-29T23:18:01.520Z,98422.81
2019-04-29T23:22:10.651Z,98429.53
2019-04-29T23:26:16.939Z,98430.92
2019-04-29T23:30:23.474Z,98412.09
2019-04-29T23:34:29.503Z,98417.44
2019-04-29T23:38:34.587Z,98425.30
2019-04-29T23:42:39.420Z,98417.68
2019-04-29T23:46:44.312Z,98415.84
2019-04-29T23:50:49.696Z,98417.52
2019-04-29T23:54:54.665Z,98432.95
2019-04-29T23:59:19.012Z,98426.52
